Flight Track Log - Related Links

Times and Time Zones

All times are in EDT time to prevent confusion due to time zone crossing. See the ASQ5740 flight status page for this flight to view local times or setup timezone preferences in your user account.

Time Position Orientation Groundspeed Altitude Reporting Facility
EDT Latitude Longitude Course Direction KTS MPH feet Rate Location/Type
Sun 02:48:09 PM 35.0253 -82.1289 30° Northeast 226 260 6,100  Level Atlanta Center
Sun 02:49:00 PM 35.2185 -81.8651 North  Level Estimated
Sun 02:49:09 PM 35.0850 -82.0767 36° Northeast 245 282 8,600  Level Atlanta Center
Sun 02:50:00 PM 35.2991 -81.7762 80° East  Level Estimated
Sun 02:50:09 PM 35.1444 -82.0144 41° Northeast 271 312 10,400  Level Atlanta Center
Sun 02:51:00 PM 35.3796 -81.6871 71° East  Level Estimated
Sun 02:51:09 PM 35.2122 -81.9492 38° Northeast 296 341 12,200  Level Atlanta Center
Sun 02:52:09 PM 35.2911 -81.9167 19° North 289 333 13,800 1,700 Climbing Atlanta Center
Sun 02:53:09 PM 35.3328 -81.8061 65° Northeast 289 333 15,600 1,550 Climbing Atlanta Center
Sun 02:54:09 PM 35.3725 -81.6981 66° East 318 366 16,900 1,350 Climbing Atlanta Center
Sun 02:55:09 PM 35.4164 -81.5872 64° Northeast 350 403 18,300 1,300 Climbing Atlanta Center
Sun 02:56:09 PM 35.4600 -81.4736 65° Northeast 365 420 19,500 1,250 Climbing Atlanta Center
Sun 02:57:09 PM 35.5075 -81.3550 64° Northeast 365 420 20,800 1,100 Climbing Atlanta Center
Sun 02:58:09 PM 35.5428 -81.2594 66° East 371 427 21,700 1,100 Climbing Atlanta Center
Sun 02:59:09 PM 35.6019 -81.1092 64° Northeast 381 438 23,000 1,200 Climbing Atlanta Center
Sun 03:00:09 PM 35.6533 -80.9872 63° Northeast 393 452 24,100 1,100 Climbing Atlanta Center
Sun 03:01:09 PM 35.7003 -80.8678 64° Northeast 387 445 25,200 950 Climbing Atlanta Center
Sun 03:02:09 PM 35.7492 -80.7431 64° Northeast 387 445 26,000 850 Climbing Atlanta Center
Sun 03:03:09 PM 35.7997 -80.6156 64° Northeast 392 451 26,900 370 Climbing Atlanta Center
Sun 03:04:51 PM 35.8822 -80.3964 65° Northeast 436 502 27,000 37 Climbing Washington Center
Sun 03:05:51 PM 35.9333 -80.2633 65° Northeast 436 502 27,000  Level Washington Center
Sun 03:06:50 PM 35.9844 -80.1303 65° Northeast 431 496 27,000  Level Washington Center
Sun 03:07:51 PM 36.0303 -80.0200 63° Northeast 418 481 27,000  Level Washington Center
Sun 03:08:51 PM 36.0908 -79.9025 57° Northeast 407 468 27,000  Level Washington Center
Sun 03:09:51 PM 36.1556 -79.7903 54° Northeast 402 463 27,000  Level Washington Center
Sun 03:10:49 PM 36.2178 -79.6753 56° Northeast 402 463 27,000  Level Washington Center
Sun 03:11:50 PM 36.2867 -79.5525 55° Northeast 397 457 27,000 -99 Level Washington Center
Sun 03:12:50 PM 36.3422 -79.4522 55° Northeast 392 451 26,800 -446 Descending Washington Center
Sun 03:13:51 PM 36.4042 -79.3392 56° Northeast 392 451 26,100 -694 Descending Washington Center
Sun 03:14:51 PM 36.4703 -79.2236 55° Northeast 402 463 25,400 -550 Descending Washington Center
Sun 03:15:51 PM 36.5361 -79.1128 54° Northeast 402 463 25,000 -203 Descending Washington Center
Sun 03:16:49 PM 36.6003 -78.9942 56° Northeast 402 463 25,000  Level Washington Center
Sun 03:17:50 PM 36.6683 -78.8678 56° Northeast 397 457 25,000  Level Washington Center
Sun 03:18:50 PM 36.7297 -78.7536 56° Northeast 397 457 25,000  Level Washington Center
Sun 03:19:50 PM 36.7844 -78.6547 55° Northeast 397 457 25,000 -198 Level Washington Center
Sun 03:20:51 PM 36.8458 -78.5428 56° Northeast 392 451 24,600 -595 Descending Washington Center
Sun 03:21:51 PM 36.9156 -78.4183 55° Northeast 392 451 23,800 -763 Descending Washington Center
Sun 03:22:49 PM 36.9767 -78.3036 56° Northeast 392 451 23,100 -712 Descending Washington Center
Sun 03:23:49 PM 37.0458 -78.1992 50° Northeast 392 451 22,400 -550 Descending Washington Center
Sun 03:24:49 PM 37.1283 -78.1394 30° Northeast 374 430 22,000 -198 Descending Washington Center
Sun 03:25:50 PM 37.2175 -78.0694 32° Northeast 369 425 22,000  Level Washington Center
Sun 03:26:51 PM 37.3064 -78.0019 31° Northeast 374 430 22,000  Level Washington Center
Sun 03:27:49 PM 37.3975 -77.9289 32° Northeast 374 430 22,000  Level Washington Center
Sun 03:28:49 PM 37.4886 -77.8611 31° Northeast 374 430 22,000  Level Washington Center
Sun 03:29:51 PM 37.5836 -77.7983 28° Northeast 380 437 22,000 -341 Level Washington Center
Sun 03:30:52 PM 37.6806 -77.7383 26° Northeast 380 437 21,300 -1,563 Descending Washington Center
Sun 03:31:50 PM 37.7797 -77.6831 24° Northeast 380 437 18,900 -2,390 Descending Washington Center
Sun 03:32:50 PM 37.8744 -77.6253 26° Northeast 380 437 16,600 -2,115 Descending Washington Center
Sun 03:33:52 PM 37.9650 -77.5750 24° Northeast 374 430 14,600 -1,966 Descending Washington Center
Sun 03:34:49 PM 38.0597 -77.5197 25° Northeast 352 405 12,700 -1,881 Descending Washington Center
Sun 03:35:50 PM 38.1439 -77.4717 24° Northeast 336 387 10,900 -1,339 Descending Washington Center
Sun 03:36:50 PM 38.2197 -77.4233 27° Northeast 319 367 10,000 -744 Descending Washington Center
Sun 03:37:51 PM 38.2950 -77.4067 10° North 281 323 9,400 -645 Descending Washington Center
Sun 03:38:51 PM 38.3656 -77.4428 338° Northwest 263 303 8,700 -706 Descending Washington Center
Sun 03:39:50 PM 38.4381 -77.4711 343° North 263 303 8,000 -694 Descending Washington Center
Sun 03:40:52 PM 38.5131 -77.4703 360° North 263 303 7,300 -706 Descending Washington Center
Sun 03:41:49 PM 38.5839 -77.4694 North 263 303 6,600 -743 Descending Washington Center
Sun 03:42:45 PM 38.6500 -77.4667 North 220 253 5,900 -776 Descending Potomac TRACON
Sun 03:43:45 PM 38.7000 -77.4667 360° North 213 245 5,100 -992 Descending Potomac TRACON
Sun 03:44:46 PM 38.7667 -77.4667 360° North 205 236 3,900 -1,220 Descending Potomac TRACON
Sun 03:45:43 PM 38.8167 -77.4667 360° North 215 247 2,700 -1,119 Descending Potomac TRACON
Sun 03:46:44 PM 38.8667 -77.4667 360° North 173 199 1,700 -885 Descending Potomac TRACON
Sun 03:47:45 PM 38.9167 -77.4667 360° North 139 160 900 -787 Descending Potomac TRACON

Login

Don't have an account? Register now (free) for customized features, flight alerts, and more!